createdAt,value
2023-04-22T00:00:17.983Z,7.50
2023-04-22T00:02:45.924Z,7.18
2023-04-22T00:05:15.194Z,8.00
2023-04-22T00:07:44.359Z,7.88
2023-04-22T00:10:12.175Z,8.13
2023-04-22T00:12:39.301Z,8.30
2023-04-22T00:15:07.040Z,7.40
2023-04-22T00:17:34.211Z,8.50
2023-04-22T00:20:01.628Z,9.02
2023-04-22T00:22:28.933Z,7.75
2023-04-22T00:24:56.204Z,7.53
2023-04-22T00:27:23.279Z,7.65
2023-04-22T00:29:50.549Z,8.02
2023-04-22T00:32:17.845Z,8.45
2023-04-22T00:34:44.864Z,8.18
2023-04-22T00:37:12.178Z,8.07
2023-04-22T00:39:40.077Z,9.00
2023-04-22T00:42:08.046Z,8.30
2023-04-22T00:44:36.909Z,8.80
2023-04-22T00:47:04.561Z,9.00
2023-04-22T00:49:31.841Z,8.85
2023-04-22T00:51:58.852Z,8.77
2023-04-22T00:54:26.532Z,9.70
2023-04-22T00:56:53.621Z,9.35
2023-04-22T00:59:21.697Z,9.68
2023-04-22T01:01:48.981Z,10.18
2023-04-22T01:04:16.307Z,9.35
2023-04-22T01:06:44.668Z,9.70
2023-04-22T01:09:12.044Z,10.32
2023-04-22T01:11:39.299Z,10.10
2023-04-22T01:14:06.590Z,9.73
2023-04-22T01:16:35.800Z,9.50
2023-04-22T01:19:03.164Z,8.70
2023-04-22T01:21:33.653Z,8.73
2023-04-22T01:24:02.191Z,9.00
2023-04-22T01:26:29.556Z,8.18
2023-04-22T01:28:56.814Z,7.85
2023-04-22T01:31:24.322Z,8.82
2023-04-22T01:33:51.853Z,8.95
2023-04-22T01:36:19.055Z,9.52
2023-04-22T01:38:46.241Z,9.65
2023-04-22T01:41:14.477Z,10.25
2023-04-22T01:43:44.294Z,7.55
2023-04-22T01:46:11.676Z,6.82
2023-04-22T01:48:40.289Z,6.88
2023-04-22T01:51:07.464Z,6.55
2023-04-22T01:53:35.757Z,6.97
2023-04-22T01:56:03.148Z,7.63
2023-04-22T01:58:30.955Z,6.80
2023-04-22T02:00:58.252Z,6.90
2023-04-22T02:03:25.636Z,7.32
2023-04-22T02:05:54.056Z,7.95
2023-04-22T02:08:21.135Z,7.40
2023-04-22T02:10:48.212Z,7.35
2023-04-22T02:13:15.674Z,8.00
2023-04-22T02:15:42.946Z,7.85
2023-04-22T02:18:11.211Z,7.55
2023-04-22T02:20:38.342Z,8.00
2023-04-22T02:23:06.641Z,8.85
2023-04-22T02:25:33.736Z,9.40
2023-04-22T02:28:00.971Z,8.95
2023-04-22T02:30:28.286Z,9.80
2023-04-22T02:32:56.217Z,10.75
2023-04-22T02:35:23.566Z,10.70
2023-04-22T02:37:51.435Z,9.82
2023-04-22T02:40:18.958Z,8.90
2023-04-22T02:42:46.139Z,8.75
2023-04-22T02:45:13.191Z,7.80
2023-04-22T02:47:40.526Z,8.00
2023-04-22T02:50:08.374Z,8.95
2023-04-22T02:52:35.616Z,8.07
2023-04-22T02:55:02.681Z,11.93
2023-04-22T02:57:30.039Z,13.30
2023-04-22T02:59:57.285Z,10.32
2023-04-22T03:02:25.145Z,7.75
2023-04-22T03:05:04.744Z,7.20
2023-04-22T03:07:31.932Z,7.03
2023-04-22T03:09:59.869Z,7.28
2023-04-22T03:12:26.979Z,7.97
2023-04-22T03:14:54.419Z,8.77
2023-04-22T03:17:23.382Z,8.65
2023-04-22T03:19:50.506Z,10.00
2023-04-22T03:22:17.678Z,10.77
2023-04-22T03:24:45.451Z,10.20
2023-04-22T03:27:12.619Z,9.45
2023-04-22T03:29:40.133Z,9.00
2023-04-22T03:32:08.005Z,7.90
2023-04-22T03:34:37.426Z,8.43
2023-04-22T03:37:07.133Z,8.52
2023-04-22T03:39:34.320Z,7.80
2023-04-22T03:42:01.957Z,7.93
2023-04-22T03:44:29.839Z,9.10
2023-04-22T03:46:56.932Z,8.23
2023-04-22T03:49:28.700Z,8.88
2023-04-22T03:51:56.654Z,9.82
2023-04-22T03:54:26.659Z,9.23
2023-04-22T03:56:53.754Z,8.82
2023-04-22T03:59:22.917Z,8.73
2023-04-22T04:01:52.050Z,8.48
2023-04-22T04:04:23.477Z,7.13
2023-04-22T04:06:56.548Z,8.35
2023-04-22T04:09:23.663Z,7.35
2023-04-22T04:11:51.770Z,7.53
2023-04-22T04:14:18.910Z,8.10
2023-04-22T04:16:47.853Z,7.50
2023-04-22T04:19:33.139Z,7.75
2023-04-22T04:22:01.957Z,9.50
2023-04-22T04:24:32.893Z,8.82
2023-04-22T04:27:06.505Z,9.68
2023-04-22T04:29:42.273Z,9.57
2023-04-22T04:32:14.815Z,8.90
2023-04-22T04:34:42.668Z,9.35
2023-04-22T04:37:10.395Z,9.20
2023-04-22T04:39:50.115Z,8.45
2023-04-22T04:42:20.669Z,8.38
2023-04-22T04:44:54.691Z,9.27
2023-04-22T04:47:22.727Z,9.30
2023-04-22T04:49:54.500Z,9.43
2023-04-22T04:52:22.072Z,8.30
2023-04-22T04:54:49.277Z,8.98
2023-04-22T04:57:16.538Z,10.15
2023-04-22T04:59:43.793Z,9.73
2023-04-22T05:02:11.271Z,9.00
2023-04-22T05:04:38.742Z,9.57
2023-04-22T05:07:06.103Z,8.95
2023-04-22T05:09:37.781Z,8.75
2023-04-22T05:12:05.600Z,9.15
2023-04-22T05:14:32.819Z,9.00
2023-04-22T05:17:00.164Z,9.50
2023-04-22T05:19:28.704Z,9.15
2023-04-22T05:21:57.063Z,9.57
2023-04-22T05:24:24.682Z,8.60
2023-04-22T05:26:51.937Z,9.25
2023-04-22T05:29:20.089Z,9.30
2023-04-22T05:31:47.772Z,10.23
2023-04-22T05:34:15.163Z,9.88
2023-04-22T05:36:43.203Z,10.18
2023-04-22T05:39:12.324Z,9.85
2023-04-22T05:41:40.647Z,9.82
2023-04-22T05:44:11.120Z,9.32
2023-04-22T05:46:39.218Z,9.23
2023-04-22T05:49:06.459Z,8.90
2023-04-22T05:51:53.476Z,9.02
2023-04-22T05:54:27.225Z,8.98
2023-04-22T05:56:54.537Z,9.35
2023-04-22T05:59:22.025Z,8.93
2023-04-22T06:01:50.135Z,8.93
2023-04-22T06:04:20.208Z,8.18
2023-04-22T06:06:48.184Z,6.45
2023-04-22T06:09:15.324Z,5.45
2023-04-22T06:11:42.544Z,5.80
2023-04-22T06:14:09.741Z,5.63
2023-04-22T06:16:37.144Z,6.22
2023-04-22T06:19:08.436Z,6.35
2023-04-22T06:21:38.257Z,6.05
2023-04-22T06:24:06.154Z,6.00
2023-04-22T06:26:33.330Z,5.63
2023-04-22T06:29:02.953Z,5.90
2023-04-22T06:31:30.264Z,6.20
2023-04-22T06:33:57.494Z,6.40
2023-04-22T06:36:25.445Z,5.80
2023-04-22T06:38:59.327Z,6.40
2023-04-22T06:41:40.100Z,5.80
2023-04-22T06:44:21.020Z,6.70
2023-04-22T06:47:01.781Z,6.40
2023-04-22T06:49:49.248Z,6.68
2023-04-22T06:52:24.327Z,9.45
2023-04-22T06:54:54.571Z,7.03
2023-04-22T06:57:21.723Z,7.15
2023-04-22T06:59:48.822Z,8.65
2023-04-22T07:02:16.757Z,8.65
2023-04-22T07:04:44.687Z,15.98
2023-04-22T07:07:12.379Z,8.75
2023-04-22T07:09:40.971Z,7.20
2023-04-22T07:12:08.553Z,6.57
2023-04-22T07:14:35.698Z,6.78
2023-04-22T07:17:02.892Z,6.47
2023-04-22T07:19:30.652Z,5.88
2023-04-22T07:21:58.681Z,5.93
2023-04-22T07:24:26.254Z,6.10
2023-04-22T07:26:53.320Z,5.63
2023-04-22T07:29:20.518Z,5.63
2023-04-22T07:31:47.768Z,5.68
2023-04-22T07:34:15.122Z,5.18
2023-04-22T07:36:42.253Z,5.68
2023-04-22T07:39:09.908Z,6.18
2023-04-22T07:41:37.197Z,4.82
2023-04-22T07:44:04.361Z,5.88
2023-04-22T07:46:31.575Z,5.22
2023-04-22T07:48:58.850Z,5.57
2023-04-22T07:51:26.055Z,5.10
2023-04-22T07:53:53.214Z,5.28
2023-04-22T07:56:20.370Z,5.18
2023-04-22T07:58:47.576Z,5.00
2023-04-22T08:01:14.750Z,5.00
2023-04-22T08:03:42.205Z,5.03
2023-04-22T08:06:09.533Z,5.30
2023-04-22T08:08:36.742Z,4.95
2023-04-22T08:11:03.994Z,5.15
2023-04-22T08:13:31.156Z,5.28
2023-04-22T08:15:58.329Z,5.57
2023-04-22T08:18:25.659Z,5.85
2023-04-22T08:20:52.751Z,6.22
2023-04-22T08:23:21.477Z,5.65
2023-04-22T08:25:49.248Z,6.63
2023-04-22T08:28:16.248Z,5.72
2023-04-22T08:30:43.323Z,5.97
2023-04-22T08:33:11.274Z,5.97
2023-04-22T08:35:41.615Z,6.32
2023-04-22T08:38:08.712Z,6.20
2023-04-22T08:40:36.083Z,6.10
2023-04-22T08:43:03.324Z,6.20
2023-04-22T08:45:31.189Z,6.18
2023-04-22T08:47:58.565Z,6.05
2023-04-22T08:50:26.326Z,6.53
2023-04-22T08:52:53.417Z,6.43
2023-04-22T08:55:20.586Z,6.70
2023-04-22T08:57:48.196Z,5.85
2023-04-22T09:00:16.525Z,7.00
2023-04-22T09:02:46.016Z,6.78
2023-04-22T09:05:14.250Z,5.72
2023-04-22T09:07:41.567Z,5.50
2023-04-22T09:10:11.894Z,4.30
2023-04-22T09:12:41.260Z,4.63
2023-04-22T09:15:09.885Z,4.55
2023-04-22T09:17:38.457Z,4.45
2023-04-22T09:20:07.385Z,4.30
2023-04-22T09:22:45.478Z,4.80
2023-04-22T09:25:17.599Z,4.70
2023-04-22T09:27:52.586Z,4.28
2023-04-22T09:30:25.074Z,4.95
2023-04-22T09:32:54.348Z,5.07
2023-04-22T09:35:28.046Z,4.80
2023-04-22T09:37:55.744Z,5.53
2023-04-22T09:40:23.697Z,5.30
2023-04-22T09:42:52.553Z,5.07
2023-04-22T09:45:41.174Z,4.55
2023-04-22T09:48:10.916Z,4.82
2023-04-22T09:50:40.286Z,5.28
2023-04-22T09:53:09.784Z,4.70
2023-04-22T09:55:41.566Z,5.13
2023-04-22T09:58:12.096Z,5.70
2023-04-22T10:00:42.516Z,4.72
2023-04-22T10:03:10.861Z,4.35
2023-04-22T10:05:38.492Z,4.35
2023-04-22T10:08:06.945Z,3.90
2023-04-22T10:10:34.742Z,4.78
2023-04-22T10:13:04.339Z,4.65
2023-04-22T10:15:35.686Z,4.07
2023-04-22T10:18:07.725Z,4.20
2023-04-22T10:20:38.052Z,4.13
2023-04-22T10:23:06.626Z,4.60
2023-04-22T10:25:33.756Z,5.07
2023-04-22T10:28:06.924Z,4.78
2023-04-22T10:30:37.005Z,5.00
2023-04-22T10:33:24.242Z,4.68
2023-04-22T10:36:11.356Z,4.43
2023-04-22T10:38:40.551Z,4.85
2023-04-22T10:41:13.971Z,4.85
2023-04-22T10:43:42.206Z,4.63
2023-04-22T10:46:40.346Z,4.95
2023-04-22T10:49:12.876Z,5.32
2023-04-22T10:51:42.409Z,4.85
2023-04-22T10:54:31.844Z,5.10
2023-04-22T10:57:05.555Z,5.53
2023-04-22T10:59:34.747Z,4.90
2023-04-22T11:02:02.746Z,4.85
2023-04-22T11:04:30.294Z,4.90
2023-04-22T11:07:17.275Z,4.07
2023-04-22T11:09:46.367Z,4.25
2023-04-22T11:12:39.859Z,3.83
2023-04-22T11:15:07.438Z,4.18
2023-04-22T11:17:35.981Z,3.90
2023-04-22T11:20:05.468Z,3.97
2023-04-22T11:22:36.712Z,4.30
2023-04-22T11:25:05.642Z,4.07
2023-04-22T11:27:32.883Z,4.03
2023-04-22T11:30:00.982Z,4.68
2023-04-22T11:32:29.023Z,3.97
2023-04-22T11:34:56.800Z,4.18
2023-04-22T11:37:24.823Z,3.85
2023-04-22T11:40:16.905Z,4.38
2023-04-22T11:42:39.707Z,4.30
2023-04-22T11:45:08.144Z,3.75
2023-04-22T11:47:36.516Z,4.30
2023-04-22T11:50:07.219Z,4.43
2023-04-22T11:52:57.531Z,4.03
2023-04-22T11:55:30.394Z,4.03
2023-04-22T11:58:10.040Z,3.90
2023-04-22T12:00:40.823Z,3.70
2023-04-22T12:03:15.110Z,4.10
2023-04-22T12:05:47.430Z,3.80
2023-04-22T12:08:16.569Z,3.80
2023-04-22T12:10:46.402Z,4.38
2023-04-22T12:13:23.250Z,4.65
2023-04-22T12:15:54.627Z,4.18
2023-04-22T12:18:39.714Z,4.72
2023-04-22T12:21:07.990Z,4.05
2023-04-22T12:23:56.115Z,4.18
2023-04-22T12:26:26.597Z,5.05
2023-04-22T12:28:55.480Z,3.70
2023-04-22T12:31:22.626Z,3.60
2023-04-22T12:33:50.197Z,4.78
2023-04-22T12:36:21.032Z,4.13
2023-04-22T12:38:48.489Z,4.68
2023-04-22T12:41:17.234Z,4.35
2023-04-22T12:43:44.620Z,4.20
2023-04-22T12:46:11.945Z,4.65
2023-04-22T12:48:39.240Z,3.97
2023-04-22T12:51:07.204Z,4.55
2023-04-22T12:53:34.763Z,4.18
2023-04-22T12:56:01.915Z,4.32
2023-04-22T12:58:29.199Z,3.85
2023-04-22T13:00:56.469Z,4.07
2023-04-22T13:03:23.815Z,4.30
2023-04-22T13:05:52.301Z,4.25
2023-04-22T13:08:19.502Z,4.10
2023-04-22T13:10:46.673Z,4.72
2023-04-22T13:13:18.243Z,3.90
2023-04-22T13:15:47.851Z,4.43
2023-04-22T13:18:16.973Z,4.22
2023-04-22T13:20:44.420Z,4.00
2023-04-22T13:23:13.328Z,3.95
2023-04-22T13:25:41.051Z,4.00
2023-04-22T13:28:08.414Z,3.58
2023-04-22T13:30:36.475Z,4.05
2023-04-22T13:33:03.713Z,4.40
2023-04-22T13:35:31.639Z,4.63
2023-04-22T13:37:58.969Z,4.35
2023-04-22T13:40:27.488Z,4.13
2023-04-22T13:42:55.532Z,4.28
2023-04-22T13:45:22.761Z,3.92
2023-04-22T13:47:50.539Z,4.20
2023-04-22T13:50:17.935Z,4.10
2023-04-22T13:52:45.264Z,4.32
2023-04-22T13:55:12.589Z,3.80
2023-04-22T13:57:39.769Z,4.10
2023-04-22T14:00:08.601Z,3.75
2023-04-22T14:02:43.166Z,4.25
2023-04-22T14:05:10.963Z,4.65
2023-04-22T14:07:38.013Z,4.43
2023-04-22T14:10:07.970Z,3.97
2023-04-22T14:12:35.532Z,4.00
2023-04-22T14:15:02.716Z,3.90
2023-04-22T14:17:29.947Z,4.10
2023-04-22T14:19:57.512Z,4.18
2023-04-22T14:22:24.728Z,3.90
2023-04-22T14:24:52.240Z,3.80
2023-04-22T14:27:19.808Z,3.90
2023-04-22T14:29:47.329Z,4.00
2023-04-22T14:32:18.559Z,3.70
2023-04-22T14:34:46.515Z,3.58
2023-04-22T14:37:13.867Z,3.67
2023-04-22T14:39:41.339Z,3.85
2023-04-22T14:42:08.972Z,3.95
2023-04-22T14:44:36.240Z,4.00
2023-04-22T14:47:03.722Z,3.28
2023-04-22T14:49:33.210Z,3.42
2023-04-22T14:52:01.576Z,3.80
2023-04-22T14:54:28.642Z,3.33
2023-04-22T14:56:56.319Z,3.90
2023-04-22T14:59:23.517Z,3.92
2023-04-22T15:01:50.904Z,3.72
2023-04-22T15:04:19.536Z,3.58
2023-04-22T15:06:47.203Z,3.60
2023-04-22T15:09:14.517Z,3.35
2023-04-22T15:11:42.016Z,3.80
2023-04-22T15:14:09.210Z,3.90
2023-04-22T15:16:36.614Z,3.70
2023-04-22T15:19:03.813Z,3.63
2023-04-22T15:21:32.107Z,3.55
2023-04-22T15:23:59.391Z,3.40
2023-04-22T15:26:26.678Z,4.38
2023-04-22T15:28:53.965Z,3.80
2023-04-22T15:31:21.476Z,4.00
2023-04-22T15:33:48.834Z,3.75
2023-04-22T15:36:19.950Z,3.78
2023-04-22T15:38:47.560Z,3.92
2023-04-22T15:41:15.903Z,3.85
2023-04-22T15:43:43.934Z,3.90
2023-04-22T15:46:11.038Z,4.22
2023-04-22T15:48:38.325Z,3.80
2023-04-22T15:51:06.060Z,4.30
2023-04-22T15:53:33.253Z,4.38
2023-04-22T15:56:00.315Z,4.47
2023-04-22T15:58:29.012Z,4.60
2023-04-22T16:01:07.678Z,4.80
2023-04-22T16:03:45.165Z,4.07
2023-04-22T16:06:12.776Z,3.83
2023-04-22T16:08:40.107Z,4.20
2023-04-22T16:11:07.436Z,3.50
2023-04-22T16:13:34.755Z,3.90
2023-04-22T16:16:01.948Z,4.63
2023-04-22T16:18:29.318Z,4.25
2023-04-22T16:20:56.904Z,3.90
2023-04-22T16:23:24.101Z,4.07
2023-04-22T16:25:51.153Z,3.92
2023-04-22T16:28:18.529Z,4.22
2023-04-22T16:30:45.706Z,4.15
2023-04-22T16:33:14.448Z,4.00
2023-04-22T16:35:41.661Z,4.07
2023-04-22T16:38:10.132Z,4.45
2023-04-22T16:40:39.821Z,4.25
2023-04-22T16:43:07.479Z,4.28
2023-04-22T16:45:34.686Z,4.22
2023-04-22T16:48:02.025Z,4.30
2023-04-22T16:50:29.375Z,4.78
2023-04-22T16:52:56.843Z,4.43
2023-04-22T16:55:24.055Z,4.57
2023-04-22T16:57:51.335Z,4.30
2023-04-22T17:00:18.920Z,4.30
2023-04-22T17:02:46.138Z,4.50
2023-04-22T17:05:13.441Z,4.50
2023-04-22T17:07:41.052Z,4.25
2023-04-22T17:10:08.824Z,4.60
2023-04-22T17:12:36.059Z,4.38
2023-04-22T17:15:04.215Z,4.55
2023-04-22T17:17:31.391Z,5.10
2023-04-22T17:19:58.721Z,4.68
2023-04-22T17:22:26.283Z,4.55
2023-04-22T17:24:53.474Z,4.95
2023-04-22T17:27:21.362Z,4.93
2023-04-22T17:29:48.817Z,4.90
2023-04-22T17:32:16.309Z,4.55
2023-04-22T17:34:43.471Z,5.00
2023-04-22T17:37:10.968Z,4.78
2023-04-22T17:39:40.228Z,4.70
2023-04-22T17:42:07.724Z,4.90
2023-04-22T17:44:35.034Z,5.35
2023-04-22T17:47:02.777Z,5.65
2023-04-22T17:49:31.390Z,5.10
2023-04-22T17:51:58.554Z,5.50
2023-04-22T17:54:26.035Z,5.32
2023-04-22T17:56:53.215Z,6.07
2023-04-22T17:59:20.652Z,5.82
2023-04-22T18:01:47.778Z,5.63
2023-04-22T18:04:15.026Z,5.35
2023-04-22T18:06:42.219Z,5.47
2023-04-22T18:09:09.593Z,5.05
2023-04-22T18:11:37.113Z,5.70
2023-04-22T18:14:04.434Z,5.70
2023-04-22T18:16:32.470Z,5.70
2023-04-22T18:19:02.481Z,5.28
2023-04-22T18:21:29.912Z,5.43
2023-04-22T18:23:57.129Z,5.60
2023-04-22T18:26:24.516Z,6.00
2023-04-22T18:28:51.644Z,5.40
2023-04-22T18:31:18.768Z,5.55
2023-04-22T18:33:46.138Z,6.10
2023-04-22T18:36:13.337Z,5.90
2023-04-22T18:38:41.926Z,5.90
2023-04-22T18:41:11.229Z,5.50
2023-04-22T18:43:38.280Z,5.95
2023-04-22T18:46:05.536Z,6.15
2023-04-22T18:48:32.702Z,5.28
2023-04-22T18:51:00.568Z,5.90
2023-04-22T18:53:27.892Z,6.00
2023-04-22T18:55:55.326Z,5.80
2023-04-22T18:58:23.488Z,5.93
2023-04-22T19:00:51.035Z,6.63
2023-04-22T19:03:19.679Z,5.97
2023-04-22T19:05:47.209Z,5.82
2023-04-22T19:08:14.348Z,6.00
2023-04-22T19:10:41.630Z,5.30
2023-04-22T19:13:15.847Z,5.97
2023-04-22T19:15:50.573Z,5.80
2023-04-22T19:18:18.215Z,5.45
2023-04-22T19:20:46.499Z,5.97
2023-04-22T19:23:14.051Z,5.45
2023-04-22T19:25:41.799Z,5.63
2023-04-22T19:28:08.957Z,5.63
2023-04-22T19:30:36.642Z,5.35
2023-04-22T19:33:04.042Z,5.82
2023-04-22T19:35:32.135Z,6.07
2023-04-22T19:38:01.111Z,6.35
2023-04-22T19:40:29.678Z,6.53
2023-04-22T19:42:59.075Z,6.63
2023-04-22T19:45:27.391Z,6.85
2023-04-22T19:47:54.728Z,5.80
2023-04-22T19:50:22.672Z,6.22
2023-04-22T19:52:51.106Z,6.78
2023-04-22T19:55:19.710Z,7.20
2023-04-22T19:57:47.472Z,8.23
2023-04-22T20:00:15.048Z,7.00
2023-04-22T20:02:43.036Z,6.47
2023-04-22T20:05:11.132Z,6.80
2023-04-22T20:07:39.817Z,6.90
2023-04-22T20:10:09.904Z,6.75
2023-04-22T20:12:38.379Z,7.45
2023-04-22T20:15:06.623Z,7.40
2023-04-22T20:17:38.529Z,7.18
2023-04-22T20:20:08.325Z,6.88
2023-04-22T20:22:36.392Z,7.15
2023-04-22T20:25:07.879Z,7.78
2023-04-22T20:27:35.736Z,7.75
2023-04-22T20:30:03.904Z,8.15
2023-04-22T20:32:31.662Z,7.68
2023-04-22T20:34:59.397Z,7.57
2023-04-22T20:37:28.653Z,7.35
2023-04-22T20:39:57.472Z,7.75
2023-04-22T20:42:25.728Z,8.45
2023-04-22T20:44:53.114Z,8.73
2023-04-22T20:47:20.874Z,8.07
2023-04-22T20:49:48.061Z,7.55
2023-04-22T20:52:15.202Z,7.85
2023-04-22T20:54:43.480Z,7.20
2023-04-22T20:57:11.023Z,7.70
2023-04-22T20:59:38.145Z,8.30
2023-04-22T21:02:06.687Z,7.53
2023-04-22T21:04:34.932Z,8.07
2023-04-22T21:07:05.297Z,8.00
2023-04-22T21:09:33.011Z,7.88
2023-04-22T21:12:01.037Z,6.90
2023-04-22T21:14:28.463Z,7.40
2023-04-22T21:17:03.023Z,8.05
2023-04-22T21:22:06.215Z,8.07
2023-04-22T21:24:35.166Z,8.35
2023-04-22T21:27:03.083Z,7.43
2023-04-22T21:29:30.631Z,8.25
2023-04-22T21:32:07.232Z,8.95
2023-04-22T21:34:36.205Z,8.45
2023-04-22T21:37:04.581Z,8.02
2023-04-22T21:39:31.892Z,8.38
2023-04-22T21:41:59.103Z,8.32
2023-04-22T21:44:26.336Z,8.95
2023-04-22T21:46:53.412Z,8.38
2023-04-22T21:49:20.808Z,8.30
2023-04-22T21:51:48.404Z,8.52
2023-04-22T21:54:15.749Z,10.05
2023-04-22T21:56:42.960Z,9.60
2023-04-22T21:59:10.005Z,9.52
2023-04-22T22:01:37.088Z,10.20
2023-04-22T22:04:04.484Z,9.68
2023-04-22T22:06:33.301Z,9.73
2023-04-22T22:09:00.473Z,10.48
2023-04-22T22:11:31.368Z,9.55
2023-04-22T22:13:59.208Z,9.63
2023-04-22T22:16:26.438Z,10.35
2023-04-22T22:18:53.628Z,10.20
2023-04-22T22:21:20.753Z,10.32
2023-04-22T22:23:47.972Z,10.27
2023-04-22T22:26:15.100Z,10.57
2023-04-22T22:28:42.136Z,10.52
2023-04-22T22:31:09.257Z,11.35
2023-04-22T22:33:36.277Z,10.40
2023-04-22T22:36:03.527Z,11.27
2023-04-22T22:38:30.666Z,11.07
2023-04-22T22:40:57.729Z,10.68
2023-04-22T22:43:24.824Z,10.50
2023-04-22T22:45:52.048Z,11.02
2023-04-22T22:48:19.568Z,10.77
2023-04-22T22:50:46.762Z,9.60
2023-04-22T22:53:13.908Z,11.00
2023-04-22T22:55:41.026Z,10.48
2023-04-22T22:58:08.154Z,11.25
2023-04-22T23:00:35.339Z,11.27
2023-04-22T23:03:02.911Z,10.85
2023-04-22T23:05:30.547Z,11.32
2023-04-22T23:07:57.570Z,11.68
2023-04-22T23:10:24.745Z,11.68
2023-04-22T23:12:51.786Z,11.55
2023-04-22T23:15:18.962Z,10.02
2023-04-22T23:17:46.367Z,10.82
2023-04-22T23:20:14.189Z,10.80
2023-04-22T23:22:42.905Z,10.38
2023-04-22T23:25:10.756Z,10.80
2023-04-22T23:27:38.113Z,10.77
2023-04-22T23:30:05.929Z,10.70
2023-04-22T23:32:35.469Z,10.80
2023-04-22T23:35:03.984Z,11.00
2023-04-22T23:37:31.659Z,10.80
2023-04-22T23:39:58.835Z,10.98
2023-04-22T23:42:26.117Z,11.43
2023-04-22T23:44:53.243Z,10.90
2023-04-22T23:47:20.441Z,11.00
2023-04-22T23:49:47.823Z,10.10
2023-04-22T23:52:14.871Z,11.27
2023-04-22T23:54:42.459Z,11.15
2023-04-22T23:57:09.956Z,10.63
2023-04-22T23:59:37.453Z,10.80
